sensor_id;sensor_type;location;lat;lon;timestamp;P1;durP1;ratioP1;P2;durP2;ratioP2
62798;SDS011;48842;51.046;13.796;2022-10-16T00:01:41;19.17;;;16.73;;
62798;SDS011;48842;51.046;13.796;2022-10-16T00:04:06;19.67;;;17.63;;
62798;SDS011;48842;51.046;13.796;2022-10-16T00:06:31;20.23;;;17.60;;
62798;SDS011;48842;51.046;13.796;2022-10-16T00:08:57;17.57;;;15.70;;
62798;SDS011;48842;51.046;13.796;2022-10-16T00:11:23;18.00;;;16.00;;
62798;SDS011;48842;51.046;13.796;2022-10-16T00:13:51;25.77;;;17.03;;
62798;SDS011;48842;51.046;13.796;2022-10-16T00:16:19;18.30;;;16.57;;
62798;SDS011;48842;51.046;13.796;2022-10-16T00:18:45;16.17;;;14.60;;
62798;SDS011;48842;51.046;13.796;2022-10-16T00:21:11;17.30;;;15.57;;
62798;SDS011;48842;51.046;13.796;2022-10-16T00:23:42;17.00;;;15.30;;
62798;SDS011;48842;51.046;13.796;2022-10-16T00:26:09;17.43;;;15.73;;
62798;SDS011;48842;51.046;13.796;2022-10-16T00:28:36;18.20;;;16.50;;
62798;SDS011;48842;51.046;13.796;2022-10-16T00:31:03;16.97;;;15.27;;
62798;SDS011;48842;51.046;13.796;2022-10-16T00:33:33;17.20;;;15.50;;
62798;SDS011;48842;51.046;13.796;2022-10-16T00:35:59;19.73;;;16.20;;
62798;SDS011;48842;51.046;13.796;2022-10-16T00:38:25;17.20;;;15.60;;
62798;SDS011;48842;51.046;13.796;2022-10-16T00:40:51;17.77;;;15.90;;
62798;SDS011;48842;51.046;13.796;2022-10-16T00:49:15;17.63;;;15.73;;
62798;SDS011;48842;51.046;13.796;2022-10-16T00:51:43;18.20;;;14.67;;
62798;SDS011;48842;51.046;13.796;2022-10-16T00:54:22;16.73;;;15.10;;
62798;SDS011;48842;51.046;13.796;2022-10-16T00:56:49;15.73;;;14.33;;
62798;SDS011;48842;51.046;13.796;2022-10-16T00:59:17;16.90;;;15.20;;
62798;SDS011;48842;51.046;13.796;2022-10-16T01:01:46;16.20;;;14.70;;
62798;SDS011;48842;51.046;13.796;2022-10-16T01:04:12;16.10;;;14.50;;
62798;SDS011;48842;51.046;13.796;2022-10-16T01:06:50;17.13;;;15.60;;
62798;SDS011;48842;51.046;13.796;2022-10-16T01:09:36;14.60;;;13.40;;
62798;SDS011;48842;51.046;13.796;2022-10-16T01:12:30;16.93;;;14.00;;
62798;SDS011;48842;51.046;13.796;2022-10-16T01:20:58;16.00;;;14.40;;
62798;SDS011;48842;51.046;13.796;2022-10-16T01:23:31;15.27;;;13.77;;
62798;SDS011;48842;51.046;13.796;2022-10-16T01:26:31;16.00;;;14.60;;
62798;SDS011;48842;51.046;13.796;2022-10-16T01:29:11;15.20;;;13.90;;
62798;SDS011;48842;51.046;13.796;2022-10-16T01:31:41;14.77;;;13.33;;
62798;SDS011;48842;51.046;13.796;2022-10-16T01:34:14;15.10;;;13.50;;
62798;SDS011;48842;51.046;13.796;2022-10-16T01:36:43;15.23;;;13.83;;
62798;SDS011;48842;51.046;13.796;2022-10-16T01:39:12;16.13;;;14.57;;
62798;SDS011;48842;51.046;13.796;2022-10-16T01:41:46;15.20;;;13.63;;
62798;SDS011;48842;51.046;13.796;2022-10-16T01:44:18;17.70;;;14.70;;
62798;SDS011;48842;51.046;13.796;2022-10-16T01:46:47;15.63;;;14.23;;
62798;SDS011;48842;51.046;13.796;2022-10-16T01:49:15;15.77;;;14.17;;
62798;SDS011;48842;51.046;13.796;2022-10-16T01:51:43;16.67;;;15.27;;
62798;SDS011;48842;51.046;13.796;2022-10-16T01:54:12;15.67;;;14.23;;
62798;SDS011;48842;51.046;13.796;2022-10-16T01:56:39;16.30;;;14.80;;
62798;SDS011;48842;51.046;13.796;2022-10-16T01:59:06;14.77;;;13.30;;
62798;SDS011;48842;51.046;13.796;2022-10-16T02:01:37;14.77;;;13.27;;
62798;SDS011;48842;51.046;13.796;2022-10-16T02:04:27;17.20;;;15.70;;
62798;SDS011;48842;51.046;13.796;2022-10-16T02:06:56;17.37;;;15.77;;
62798;SDS011;48842;51.046;13.796;2022-10-16T02:09:22;19.20;;;17.30;;
62798;SDS011;48842;51.046;13.796;2022-10-16T02:11:47;18.87;;;16.97;;
62798;SDS011;48842;51.046;13.796;2022-10-16T02:14:14;22.10;;;17.00;;
62798;SDS011;48842;51.046;13.796;2022-10-16T02:16:42;18.33;;;16.63;;
62798;SDS011;48842;51.046;13.796;2022-10-16T02:19:09;19.53;;;17.30;;
62798;SDS011;48842;51.046;13.796;2022-10-16T02:21:39;24.50;;;18.90;;
62798;SDS011;48842;51.046;13.796;2022-10-16T02:24:31;19.23;;;17.43;;
62798;SDS011;48842;51.046;13.796;2022-10-16T02:27:05;18.67;;;16.93;;
62798;SDS011;48842;51.046;13.796;2022-10-16T02:29:36;20.33;;;18.43;;
62798;SDS011;48842;51.046;13.796;2022-10-16T02:32:12;19.10;;;17.30;;
62798;SDS011;48842;51.046;13.796;2022-10-16T02:34:42;20.37;;;17.07;;
62798;SDS011;48842;51.046;13.796;2022-10-16T02:37:09;22.60;;;17.50;;
62798;SDS011;48842;51.046;13.796;2022-10-16T02:39:35;19.03;;;17.33;;
62798;SDS011;48842;51.046;13.796;2022-10-16T02:42:01;19.10;;;17.20;;
62798;SDS011;48842;51.046;13.796;2022-10-16T02:44:27;18.33;;;16.63;;
62798;SDS011;48842;51.046;13.796;2022-10-16T02:46:52;19.10;;;17.30;;
62798;SDS011;48842;51.046;13.796;2022-10-16T02:49:18;17.03;;;15.30;;
62798;SDS011;48842;51.046;13.796;2022-10-16T02:51:43;21.57;;;17.00;;
62798;SDS011;48842;51.046;13.796;2022-10-16T02:54:08;16.83;;;15.20;;
62798;SDS011;48842;51.046;13.796;2022-10-16T02:56:34;17.93;;;16.13;;
62798;SDS011;48842;51.046;13.796;2022-10-16T02:58:59;15.53;;;14.20;;
62798;SDS011;48842;51.046;13.796;2022-10-16T03:01:24;16.73;;;15.23;;
62798;SDS011;48842;51.046;13.796;2022-10-16T03:03:50;16.53;;;15.03;;
62798;SDS011;48842;51.046;13.796;2022-10-16T03:06:15;16.77;;;15.27;;
62798;SDS011;48842;51.046;13.796;2022-10-16T03:08:40;14.90;;;13.50;;
62798;SDS011;48842;51.046;13.796;2022-10-16T03:11:06;15.93;;;14.30;;
62798;SDS011;48842;51.046;13.796;2022-10-16T03:13:31;15.30;;;13.90;;
62798;SDS011;48842;51.046;13.796;2022-10-16T03:15:56;13.50;;;12.17;;
62798;SDS011;48842;51.046;13.796;2022-10-16T03:18:21;14.50;;;13.00;;
62798;SDS011;48842;51.046;13.796;2022-10-16T03:20:47;14.60;;;13.30;;
62798;SDS011;48842;51.046;13.796;2022-10-16T03:23:12;14.90;;;13.50;;
62798;SDS011;48842;51.046;13.796;2022-10-16T03:25:37;14.63;;;13.27;;
62798;SDS011;48842;51.046;13.796;2022-10-16T03:28:03;15.73;;;14.37;;
62798;SDS011;48842;51.046;13.796;2022-10-16T03:30:29;13.60;;;12.40;;
62798;SDS011;48842;51.046;13.796;2022-10-16T03:32:54;15.10;;;13.80;;
62798;SDS011;48842;51.046;13.796;2022-10-16T03:35:20;15.23;;;13.70;;
62798;SDS011;48842;51.046;13.796;2022-10-16T03:37:46;16.53;;;14.03;;
62798;SDS011;48842;51.046;13.796;2022-10-16T03:40:11;15.30;;;13.80;;
62798;SDS011;48842;51.046;13.796;2022-10-16T03:42:36;15.57;;;14.07;;
62798;SDS011;48842;51.046;13.796;2022-10-16T03:45:01;16.00;;;14.47;;
62798;SDS011;48842;51.046;13.796;2022-10-16T03:47:27;17.80;;;16.03;;
62798;SDS011;48842;51.046;13.796;2022-10-16T03:49:52;17.40;;;15.83;;
62798;SDS011;48842;51.046;13.796;2022-10-16T03:52:17;18.33;;;15.80;;
62798;SDS011;48842;51.046;13.796;2022-10-16T03:54:43;18.10;;;15.30;;
62798;SDS011;48842;51.046;13.796;2022-10-16T03:57:08;16.90;;;15.50;;
62798;SDS011;48842;51.046;13.796;2022-10-16T03:59:33;18.70;;;14.33;;
62798;SDS011;48842;51.046;13.796;2022-10-16T04:01:59;16.97;;;14.87;;
62798;SDS011;48842;51.046;13.796;2022-10-16T04:04:24;16.27;;;14.80;;
62798;SDS011;48842;51.046;13.796;2022-10-16T04:06:49;17.77;;;15.97;;
62798;SDS011;48842;51.046;13.796;2022-10-16T04:09:15;17.63;;;15.43;;
62798;SDS011;48842;51.046;13.796;2022-10-16T04:11:40;17.00;;;15.30;;
62798;SDS011;48842;51.046;13.796;2022-10-16T04:14:05;17.63;;;15.80;;
62798;SDS011;48842;51.046;13.796;2022-10-16T04:16:31;16.20;;;14.70;;
62798;SDS011;48842;51.046;13.796;2022-10-16T04:18:56;16.60;;;15.03;;
62798;SDS011;48842;51.046;13.796;2022-10-16T04:21:21;15.60;;;14.20;;
62798;SDS011;48842;51.046;13.796;2022-10-16T04:23:47;17.10;;;15.50;;
62798;SDS011;48842;51.046;13.796;2022-10-16T04:26:12;18.03;;;14.83;;
62798;SDS011;48842;51.046;13.796;2022-10-16T04:28:38;16.93;;;15.43;;
62798;SDS011;48842;51.046;13.796;2022-10-16T04:31:04;16.90;;;15.30;;
62798;SDS011;48842;51.046;13.796;2022-10-16T04:33:29;16.70;;;15.10;;
62798;SDS011;48842;51.046;13.796;2022-10-16T04:35:58;20.20;;;16.67;;
62798;SDS011;48842;51.046;13.796;2022-10-16T04:38:25;16.63;;;15.07;;
62798;SDS011;48842;51.046;13.796;2022-10-16T04:40:50;18.00;;;16.10;;
62798;SDS011;48842;51.046;13.796;2022-10-16T04:43:15;17.07;;;15.47;;
62798;SDS011;48842;51.046;13.796;2022-10-16T04:45:40;17.93;;;16.27;;
62798;SDS011;48842;51.046;13.796;2022-10-16T04:48:06;17.77;;;16.27;;
62798;SDS011;48842;51.046;13.796;2022-10-16T04:50:31;17.60;;;16.10;;
62798;SDS011;48842;51.046;13.796;2022-10-16T04:52:56;17.33;;;15.77;;
62798;SDS011;48842;51.046;13.796;2022-10-16T04:55:22;16.90;;;15.40;;
62798;SDS011;48842;51.046;13.796;2022-10-16T04:57:50;16.20;;;14.77;;
62798;SDS011;48842;51.046;13.796;2022-10-16T05:00:15;19.90;;;17.90;;
62798;SDS011;48842;51.046;13.796;2022-10-16T05:02:40;16.73;;;15.30;;
62798;SDS011;48842;51.046;13.796;2022-10-16T05:05:06;17.37;;;15.67;;
62798;SDS011;48842;51.046;13.796;2022-10-16T05:07:31;16.47;;;15.07;;
62798;SDS011;48842;51.046;13.796;2022-10-16T05:09:57;16.03;;;14.63;;
62798;SDS011;48842;51.046;13.796;2022-10-16T05:12:22;16.13;;;14.73;;
62798;SDS011;48842;51.046;13.796;2022-10-16T05:14:48;15.50;;;14.10;;
62798;SDS011;48842;51.046;13.796;2022-10-16T05:17:13;16.83;;;15.37;;
62798;SDS011;48842;51.046;13.796;2022-10-16T05:19:38;18.63;;;14.60;;
62798;SDS011;48842;51.046;13.796;2022-10-16T05:22:04;18.20;;;14.90;;
62798;SDS011;48842;51.046;13.796;2022-10-16T05:24:29;16.00;;;14.60;;
62798;SDS011;48842;51.046;13.796;2022-10-16T05:26:54;18.00;;;14.67;;
62798;SDS011;48842;51.046;13.796;2022-10-16T05:29:20;15.20;;;13.90;;
62798;SDS011;48842;51.046;13.796;2022-10-16T05:31:45;16.40;;;14.80;;
62798;SDS011;48842;51.046;13.796;2022-10-16T05:34:11;14.63;;;13.40;;
62798;SDS011;48842;51.046;13.796;2022-10-16T05:36:36;16.70;;;15.00;;
62798;SDS011;48842;51.046;13.796;2022-10-16T05:39:02;16.90;;;15.20;;
62798;SDS011;48842;51.046;13.796;2022-10-16T05:41:27;15.27;;;13.97;;
62798;SDS011;48842;51.046;13.796;2022-10-16T05:43:53;22.13;;;14.30;;
62798;SDS011;48842;51.046;13.796;2022-10-16T05:46:18;16.10;;;14.70;;
62798;SDS011;48842;51.046;13.796;2022-10-16T05:48:44;15.87;;;14.47;;
62798;SDS011;48842;51.046;13.796;2022-10-16T05:51:10;15.53;;;14.23;;
62798;SDS011;48842;51.046;13.796;2022-10-16T05:53:37;15.60;;;14.20;;
62798;SDS011;48842;51.046;13.796;2022-10-16T05:56:04;14.73;;;13.50;;
62798;SDS011;48842;51.046;13.796;2022-10-16T05:58:31;15.83;;;14.43;;
62798;SDS011;48842;51.046;13.796;2022-10-16T06:00:59;15.77;;;14.27;;
62798;SDS011;48842;51.046;13.796;2022-10-16T06:03:28;15.37;;;13.97;;
62798;SDS011;48842;51.046;13.796;2022-10-16T06:05:54;16.23;;;14.90;;
62798;SDS011;48842;51.046;13.796;2022-10-16T06:08:20;14.80;;;13.60;;
62798;SDS011;48842;51.046;13.796;2022-10-16T06:10:46;15.87;;;14.27;;
62798;SDS011;48842;51.046;13.796;2022-10-16T06:13:12;17.50;;;16.00;;
62798;SDS011;48842;51.046;13.796;2022-10-16T06:15:39;17.60;;;16.00;;
62798;SDS011;48842;51.046;13.796;2022-10-16T06:18:07;18.47;;;15.60;;
62798;SDS011;48842;51.046;13.796;2022-10-16T06:20:35;18.30;;;16.50;;
62798;SDS011;48842;51.046;13.796;2022-10-16T06:23:00;18.07;;;16.47;;
62798;SDS011;48842;51.046;13.796;2022-10-16T06:25:26;19.70;;;17.70;;
62798;SDS011;48842;51.046;13.796;2022-10-16T06:27:51;19.83;;;17.47;;
62798;SDS011;48842;51.046;13.796;2022-10-16T06:30:16;19.50;;;17.80;;
62798;SDS011;48842;51.046;13.796;2022-10-16T06:32:41;19.80;;;17.97;;
62798;SDS011;48842;51.046;13.796;2022-10-16T06:35:07;20.30;;;18.23;;
62798;SDS011;48842;51.046;13.796;2022-10-16T06:37:32;20.40;;;18.60;;
62798;SDS011;48842;51.046;13.796;2022-10-16T06:39:57;22.33;;;20.07;;
62798;SDS011;48842;51.046;13.796;2022-10-16T06:42:23;21.67;;;19.67;;
62798;SDS011;48842;51.046;13.796;2022-10-16T06:44:48;23.57;;;21.00;;
62798;SDS011;48842;51.046;13.796;2022-10-16T06:47:13;21.87;;;19.80;;
62798;SDS011;48842;51.046;13.796;2022-10-16T06:49:38;22.90;;;20.90;;
62798;SDS011;48842;51.046;13.796;2022-10-16T06:52:04;22.57;;;20.53;;
62798;SDS011;48842;51.046;13.796;2022-10-16T06:54:29;20.63;;;18.80;;
62798;SDS011;48842;51.046;13.796;2022-10-16T06:56:55;21.07;;;18.90;;
62798;SDS011;48842;51.046;13.796;2022-10-16T06:59:20;20.00;;;18.20;;
62798;SDS011;48842;51.046;13.796;2022-10-16T07:01:46;20.53;;;18.63;;
62798;SDS011;48842;51.046;13.796;2022-10-16T07:04:11;21.23;;;19.33;;
62798;SDS011;48842;51.046;13.796;2022-10-16T07:06:37;21.00;;;19.10;;
62798;SDS011;48842;51.046;13.796;2022-10-16T07:09:03;20.30;;;18.33;;
62798;SDS011;48842;51.046;13.796;2022-10-16T07:11:30;22.40;;;19.20;;
62798;SDS011;48842;51.046;13.796;2022-10-16T07:13:55;19.40;;;17.70;;
62798;SDS011;48842;51.046;13.796;2022-10-16T07:16:22;20.87;;;18.27;;
62798;SDS011;48842;51.046;13.796;2022-10-16T07:18:49;19.13;;;17.50;;
62798;SDS011;48842;51.046;13.796;2022-10-16T07:21:17;21.73;;;19.57;;
62798;SDS011;48842;51.046;13.796;2022-10-16T07:23:44;20.03;;;18.23;;
62798;SDS011;48842;51.046;13.796;2022-10-16T07:26:10;17.80;;;16.17;;
62798;SDS011;48842;51.046;13.796;2022-10-16T07:28:35;19.43;;;17.43;;
62798;SDS011;48842;51.046;13.796;2022-10-16T07:31:02;19.17;;;17.13;;
62798;SDS011;48842;51.046;13.796;2022-10-16T07:33:28;17.53;;;15.80;;
62798;SDS011;48842;51.046;13.796;2022-10-16T07:35:54;16.60;;;15.00;;
62798;SDS011;48842;51.046;13.796;2022-10-16T07:38:20;16.67;;;15.37;;
62798;SDS011;48842;51.046;13.796;2022-10-16T07:40:46;19.27;;;14.97;;
62798;SDS011;48842;51.046;13.796;2022-10-16T07:43:12;16.87;;;15.27;;
62798;SDS011;48842;51.046;13.796;2022-10-16T07:45:38;15.90;;;14.60;;
62798;SDS011;48842;51.046;13.796;2022-10-16T07:48:12;17.20;;;15.80;;
62798;SDS011;48842;51.046;13.796;2022-10-16T07:50:37;18.70;;;17.20;;
62798;SDS011;48842;51.046;13.796;2022-10-16T07:53:02;24.57;;;16.20;;
62798;SDS011;48842;51.046;13.796;2022-10-16T07:55:28;15.90;;;14.60;;
62798;SDS011;48842;51.046;13.796;2022-10-16T07:57:54;16.00;;;14.40;;
62798;SDS011;48842;51.046;13.796;2022-10-16T08:00:19;15.87;;;14.57;;
62798;SDS011;48842;51.046;13.796;2022-10-16T08:02:45;18.70;;;17.20;;
62798;SDS011;48842;51.046;13.796;2022-10-16T08:05:10;16.63;;;15.03;;
62798;SDS011;48842;51.046;13.796;2022-10-16T08:07:35;17.57;;;16.10;;
62798;SDS011;48842;51.046;13.796;2022-10-16T08:10:00;18.27;;;16.47;;
62798;SDS011;48842;51.046;13.796;2022-10-16T08:12:26;15.77;;;14.37;;
62798;SDS011;48842;51.046;13.796;2022-10-16T08:14:51;17.23;;;13.93;;
62798;SDS011;48842;51.046;13.796;2022-10-16T08:17:17;16.27;;;14.77;;
62798;SDS011;48842;51.046;13.796;2022-10-16T08:19:45;16.73;;;15.23;;
62798;SDS011;48842;51.046;13.796;2022-10-16T08:22:11;15.30;;;13.93;;
62798;SDS011;48842;51.046;13.796;2022-10-16T08:24:36;14.87;;;13.40;;
62798;SDS011;48842;51.046;13.796;2022-10-16T08:27:02;15.73;;;13.40;;
62798;SDS011;48842;51.046;13.796;2022-10-16T08:29:27;15.20;;;14.00;;
62798;SDS011;48842;51.046;13.796;2022-10-16T08:31:53;16.10;;;13.50;;
62798;SDS011;48842;51.046;13.796;2022-10-16T08:34:18;15.33;;;13.83;;
62798;SDS011;48842;51.046;13.796;2022-10-16T08:36:44;15.63;;;14.20;;
62798;SDS011;48842;51.046;13.796;2022-10-16T08:39:09;14.23;;;12.90;;
62798;SDS011;48842;51.046;13.796;2022-10-16T08:47:02;11.47;;;10.30;;
62798;SDS011;48842;51.046;13.796;2022-10-16T08:49:39;10.90;;;9.63;;
62798;SDS011;48842;51.046;13.796;2022-10-16T08:52:10;11.10;;;10.10;;
62798;SDS011;48842;51.046;13.796;2022-10-16T08:54:41;15.00;;;11.90;;
62798;SDS011;48842;51.046;13.796;2022-10-16T08:57:14;11.40;;;10.50;;
62798;SDS011;48842;51.046;13.796;2022-10-16T08:59:43;13.27;;;11.77;;
62798;SDS011;48842;51.046;13.796;2022-10-16T09:11:03;14.03;;;12.73;;
62798;SDS011;48842;51.046;13.796;2022-10-16T09:14:04;14.67;;;13.30;;
62798;SDS011;48842;51.046;13.796;2022-10-16T09:16:48;15.47;;;13.93;;
62798;SDS011;48842;51.046;13.796;2022-10-16T09:19:34;15.37;;;13.33;;
62798;SDS011;48842;51.046;13.796;2022-10-16T09:22:10;14.40;;;13.27;;
62798;SDS011;48842;51.046;13.796;2022-10-16T09:24:39;14.70;;;13.50;;
62798;SDS011;48842;51.046;13.796;2022-10-16T09:27:04;14.20;;;13.10;;
62798;SDS011;48842;51.046;13.796;2022-10-16T09:29:35;14.73;;;13.47;;
62798;SDS011;48842;51.046;13.796;2022-10-16T09:32:07;15.57;;;13.77;;
62798;SDS011;48842;51.046;13.796;2022-10-16T09:34:42;17.00;;;13.20;;
62798;SDS011;48842;51.046;13.796;2022-10-16T09:37:12;13.50;;;12.40;;
62798;SDS011;48842;51.046;13.796;2022-10-16T09:39:46;13.33;;;12.10;;
62798;SDS011;48842;51.046;13.796;2022-10-16T09:42:14;13.63;;;12.43;;
62798;SDS011;48842;51.046;13.796;2022-10-16T09:44:41;13.33;;;12.03;;
62798;SDS011;48842;51.046;13.796;2022-10-16T09:47:21;14.33;;;13.00;;
62798;SDS011;48842;51.046;13.796;2022-10-16T09:49:59;13.87;;;12.77;;
62798;SDS011;48842;51.046;13.796;2022-10-16T09:52:29;13.43;;;12.37;;
62798;SDS011;48842;51.046;13.796;2022-10-16T09:55:08;13.90;;;12.77;;
62798;SDS011;48842;51.046;13.796;2022-10-16T09:57:48;13.37;;;12.07;;
62798;SDS011;48842;51.046;13.796;2022-10-16T10:00:17;14.67;;;13.17;;
62798;SDS011;48842;51.046;13.796;2022-10-16T10:02:43;12.63;;;11.40;;
62798;SDS011;48842;51.046;13.796;2022-10-16T10:07:52;12.73;;;11.73;;
62798;SDS011;48842;51.046;13.796;2022-10-16T10:10:30;10.13;;;9.33;;
62798;SDS011;48842;51.046;13.796;2022-10-16T10:12:57;13.00;;;9.20;;
62798;SDS011;48842;51.046;13.796;2022-10-16T10:15:23;8.03;;;5.60;;
62798;SDS011;48842;51.046;13.796;2022-10-16T10:17:56;6.20;;;5.80;;
62798;SDS011;48842;51.046;13.796;2022-10-16T10:20:24;5.60;;;5.30;;
62798;SDS011;48842;51.046;13.796;2022-10-16T10:22:52;5.13;;;4.83;;
62798;SDS011;48842;51.046;13.796;2022-10-16T10:25:28;6.00;;;5.50;;
62798;SDS011;48842;51.046;13.796;2022-10-16T10:34:11;5.57;;;5.20;;
62798;SDS011;48842;51.046;13.796;2022-10-16T10:37:39;5.50;;;4.40;;
62798;SDS011;48842;51.046;13.796;2022-10-16T10:40:08;4.90;;;4.40;;
62798;SDS011;48842;51.046;13.796;2022-10-16T10:42:47;3.90;;;3.60;;
62798;SDS011;48842;51.046;13.796;2022-10-16T10:45:26;4.03;;;3.83;;
62798;SDS011;48842;51.046;13.796;2022-10-16T10:47:59;4.63;;;4.33;;
62798;SDS011;48842;51.046;13.796;2022-10-16T10:50:45;3.60;;;3.40;;
62798;SDS011;48842;51.046;13.796;2022-10-16T10:56:06;6.27;;;5.10;;
62798;SDS011;48842;51.046;13.796;2022-10-16T10:58:50;5.47;;;5.17;;
62798;SDS011;48842;51.046;13.796;2022-10-16T11:01:35;5.03;;;4.63;;
62798;SDS011;48842;51.046;13.796;2022-10-16T11:06:40;5.60;;;5.20;;
62798;SDS011;48842;51.046;13.796;2022-10-16T11:12:14;1.60;;;1.50;;
62798;SDS011;48842;51.046;13.796;2022-10-16T11:14:49;1.00;;;0.90;;
62798;SDS011;48842;51.046;13.796;2022-10-16T11:17:23;1.03;;;0.93;;
62798;SDS011;48842;51.046;13.796;2022-10-16T11:19:55;0.63;;;0.63;;
62798;SDS011;48842;51.046;13.796;2022-10-16T11:25:06;2.50;;;0.70;;
62798;SDS011;48842;51.046;13.796;2022-10-16T11:30:14;2.07;;;0.80;;
62798;SDS011;48842;51.046;13.796;2022-10-16T11:35:32;0.90;;;0.60;;
62798;SDS011;48842;51.046;13.796;2022-10-16T11:38:07;0.70;;;0.70;;
62798;SDS011;48842;51.046;13.796;2022-10-16T11:40:40;2.17;;;0.60;;
62798;SDS011;48842;51.046;13.796;2022-10-16T11:43:12;0.80;;;0.80;;
62798;SDS011;48842;51.046;13.796;2022-10-16T11:45:57;2.20;;;0.70;;
62798;SDS011;48842;51.046;13.796;2022-10-16T11:48:31;0.60;;;0.60;;
62798;SDS011;48842;51.046;13.796;2022-10-16T11:53:40;0.60;;;0.60;;
62798;SDS011;48842;51.046;13.796;2022-10-16T11:56:12;1.00;;;0.60;;
62798;SDS011;48842;51.046;13.796;2022-10-16T11:58:49;1.13;;;0.93;;
62798;SDS011;48842;51.046;13.796;2022-10-16T12:01:42;0.70;;;0.53;;
62798;SDS011;48842;51.046;13.796;2022-10-16T12:09:39;1.40;;;0.60;;
62798;SDS011;48842;51.046;13.796;2022-10-16T12:12:23;0.80;;;0.70;;
62798;SDS011;48842;51.046;13.796;2022-10-16T12:14:59;3.07;;;0.50;;
62798;SDS011;48842;51.046;13.796;2022-10-16T12:17:27;0.73;;;0.70;;
62798;SDS011;48842;51.046;13.796;2022-10-16T12:20:17;3.70;;;0.50;;
62798;SDS011;48842;51.046;13.796;2022-10-16T12:22:53;1.13;;;0.60;;
62798;SDS011;48842;51.046;13.796;2022-10-16T12:25:26;1.57;;;0.70;;
62798;SDS011;48842;51.046;13.796;2022-10-16T12:27:57;0.60;;;0.60;;
62798;SDS011;48842;51.046;13.796;2022-10-16T12:30:28;0.60;;;0.50;;
62798;SDS011;48842;51.046;13.796;2022-10-16T12:32:59;0.60;;;0.53;;
62798;SDS011;48842;51.046;13.796;2022-10-16T12:35:28;0.60;;;0.60;;
62798;SDS011;48842;51.046;13.796;2022-10-16T12:38:07;5.40;;;0.80;;
62798;SDS011;48842;51.046;13.796;2022-10-16T12:40:39;1.17;;;0.90;;
62798;SDS011;48842;51.046;13.796;2022-10-16T12:43:26;0.50;;;0.50;;
62798;SDS011;48842;51.046;13.796;2022-10-16T12:46:21;1.40;;;0.67;;
62798;SDS011;48842;51.046;13.796;2022-10-16T12:48:46;0.60;;;0.50;;
62798;SDS011;48842;51.046;13.796;2022-10-16T12:51:46;0.70;;;0.60;;
62798;SDS011;48842;51.046;13.796;2022-10-16T12:54:22;1.37;;;0.60;;
62798;SDS011;48842;51.046;13.796;2022-10-16T12:57:08;0.80;;;0.80;;
62798;SDS011;48842;51.046;13.796;2022-10-16T13:02:18;1.47;;;0.60;;
62798;SDS011;48842;51.046;13.796;2022-10-16T13:05:08;0.70;;;0.60;;
62798;SDS011;48842;51.046;13.796;2022-10-16T13:13:06;0.70;;;0.70;;
62798;SDS011;48842;51.046;13.796;2022-10-16T13:18:46;2.00;;;0.80;;
62798;SDS011;48842;51.046;13.796;2022-10-16T13:26:48;0.80;;;0.60;;
62798;SDS011;48842;51.046;13.796;2022-10-16T13:29:32;1.03;;;0.60;;
62798;SDS011;48842;51.046;13.796;2022-10-16T13:31:58;0.90;;;0.80;;
62798;SDS011;48842;51.046;13.796;2022-10-16T13:34:31;1.13;;;1.13;;
62798;SDS011;48842;51.046;13.796;2022-10-16T13:36:57;2.27;;;2.17;;
62798;SDS011;48842;51.046;13.796;2022-10-16T13:44:42;1.23;;;1.13;;
62798;SDS011;48842;51.046;13.796;2022-10-16T13:47:17;4.30;;;2.67;;
62798;SDS011;48842;51.046;13.796;2022-10-16T13:49:44;2.20;;;1.30;;
62798;SDS011;48842;51.046;13.796;2022-10-16T13:52:19;3.30;;;1.53;;
62798;SDS011;48842;51.046;13.796;2022-10-16T13:54:45;3.27;;;1.20;;
62798;SDS011;48842;51.046;13.796;2022-10-16T13:57:15;7.90;;;1.73;;
62798;SDS011;48842;51.046;13.796;2022-10-16T13:59:41;7.03;;;1.60;;
62798;SDS011;48842;51.046;13.796;2022-10-16T14:02:15;3.53;;;1.60;;
62798;SDS011;48842;51.046;13.796;2022-10-16T14:04:54;9.53;;;3.50;;
62798;SDS011;48842;51.046;13.796;2022-10-16T14:07:24;2.60;;;1.50;;
62798;SDS011;48842;51.046;13.796;2022-10-16T14:09:53;4.00;;;1.80;;
62798;SDS011;48842;51.046;13.796;2022-10-16T14:12:20;2.50;;;1.97;;
62798;SDS011;48842;51.046;13.796;2022-10-16T14:14:48;8.93;;;2.50;;
62798;SDS011;48842;51.046;13.796;2022-10-16T14:17:26;6.43;;;1.70;;
62798;SDS011;48842;51.046;13.796;2022-10-16T14:19:54;1.77;;;1.47;;
62798;SDS011;48842;51.046;13.796;2022-10-16T14:22:24;3.37;;;2.17;;
62798;SDS011;48842;51.046;13.796;2022-10-16T14:24:54;4.77;;;2.23;;
62798;SDS011;48842;51.046;13.796;2022-10-16T14:30:08;2.83;;;1.77;;
62798;SDS011;48842;51.046;13.796;2022-10-16T14:32:40;2.70;;;1.40;;
62798;SDS011;48842;51.046;13.796;2022-10-16T14:35:23;3.37;;;1.60;;
62798;SDS011;48842;51.046;13.796;2022-10-16T14:37:56;6.13;;;1.77;;
62798;SDS011;48842;51.046;13.796;2022-10-16T14:40:25;1.50;;;1.40;;
62798;SDS011;48842;51.046;13.796;2022-10-16T14:42:52;1.63;;;1.30;;
62798;SDS011;48842;51.046;13.796;2022-10-16T14:45:19;4.03;;;1.60;;
62798;SDS011;48842;51.046;13.796;2022-10-16T14:47:50;1.43;;;1.13;;
62798;SDS011;48842;51.046;13.796;2022-10-16T14:50:19;1.70;;;1.60;;
62798;SDS011;48842;51.046;13.796;2022-10-16T14:52:44;1.77;;;1.67;;
62798;SDS011;48842;51.046;13.796;2022-10-16T14:55:10;2.70;;;1.50;;
62798;SDS011;48842;51.046;13.796;2022-10-16T14:57:36;3.17;;;1.60;;
62798;SDS011;48842;51.046;13.796;2022-10-16T15:00:06;2.17;;;1.80;;
62798;SDS011;48842;51.046;13.796;2022-10-16T15:02:40;1.73;;;1.60;;
62798;SDS011;48842;51.046;13.796;2022-10-16T15:07:38;2.20;;;2.10;;
62798;SDS011;48842;51.046;13.796;2022-10-16T15:10:04;2.27;;;2.17;;
62798;SDS011;48842;51.046;13.796;2022-10-16T15:12:30;4.73;;;2.00;;
62798;SDS011;48842;51.046;13.796;2022-10-16T15:14:55;2.70;;;2.10;;
62798;SDS011;48842;51.046;13.796;2022-10-16T15:17:20;2.03;;;1.93;;
62798;SDS011;48842;51.046;13.796;2022-10-16T15:19:45;3.47;;;2.13;;
62798;SDS011;48842;51.046;13.796;2022-10-16T15:22:11;9.70;;;2.60;;
62798;SDS011;48842;51.046;13.796;2022-10-16T15:24:37;2.40;;;2.30;;
62798;SDS011;48842;51.046;13.796;2022-10-16T15:27:02;4.20;;;2.67;;
62798;SDS011;48842;51.046;13.796;2022-10-16T15:29:27;3.60;;;2.63;;
62798;SDS011;48842;51.046;13.796;2022-10-16T15:31:53;4.00;;;2.80;;
62798;SDS011;48842;51.046;13.796;2022-10-16T15:34:18;4.40;;;2.57;;
62798;SDS011;48842;51.046;13.796;2022-10-16T15:36:44;4.37;;;3.23;;
62798;SDS011;48842;51.046;13.796;2022-10-16T15:42:15;4.33;;;3.30;;
62798;SDS011;48842;51.046;13.796;2022-10-16T15:44:41;5.70;;;3.00;;
62798;SDS011;48842;51.046;13.796;2022-10-16T15:47:12;3.50;;;3.20;;
62798;SDS011;48842;51.046;13.796;2022-10-16T15:49:37;5.87;;;3.47;;
62798;SDS011;48842;51.046;13.796;2022-10-16T15:52:03;5.30;;;3.23;;
62798;SDS011;48842;51.046;13.796;2022-10-16T15:54:28;4.73;;;3.23;;
62798;SDS011;48842;51.046;13.796;2022-10-16T15:56:54;3.30;;;2.80;;
62798;SDS011;48842;51.046;13.796;2022-10-16T15:59:19;3.10;;;2.80;;